sensor_id;sensor_type;location;lat;lon;timestamp;pressure;altitude;pressure_sealevel;temperature;humidity
33414;BME280;60055;41.884;12.534;2023-07-13T00:02:14;100954.69;;;31.14;26.03
33414;BME280;60055;41.884;12.534;2023-07-13T00:04:40;100961.53;;;31.10;26.30
33414;BME280;60055;41.884;12.534;2023-07-13T00:07:07;100959.06;;;31.00;26.84
33414;BME280;60055;41.884;12.534;2023-07-13T00:09:32;100953.44;;;31.02;26.81
33414;BME280;60055;41.884;12.534;2023-07-13T00:11:58;100935.56;;;30.99;27.19
33414;BME280;60055;41.884;12.534;2023-07-13T00:14:25;100950.00;;;31.00;27.13
33414;BME280;60055;41.884;12.534;2023-07-13T00:16:51;100942.63;;;31.08;27.19
33414;BME280;60055;41.884;12.534;2023-07-13T00:19:16;100946.69;;;31.12;27.46
33414;BME280;60055;41.884;12.534;2023-07-13T00:21:42;100941.00;;;30.99;27.76
33414;BME280;60055;41.884;12.534;2023-07-13T00:24:11;100937.06;;;31.02;27.90
33414;BME280;60055;41.884;12.534;2023-07-13T00:26:40;100932.63;;;31.01;27.30
33414;BME280;60055;41.884;12.534;2023-07-13T00:29:06;100930.13;;;30.91;27.16
33414;BME280;60055;41.884;12.534;2023-07-13T00:31:34;100927.88;;;30.95;26.69
33414;BME280;60055;41.884;12.534;2023-07-13T00:34:00;100931.59;;;31.02;26.59
33414;BME280;60055;41.884;12.534;2023-07-13T00:36:26;100922.41;;;31.03;26.18
33414;BME280;60055;41.884;12.534;2023-07-13T00:38:51;100921.16;;;31.05;26.07
33414;BME280;60055;41.884;12.534;2023-07-13T00:41:18;100926.31;;;31.00;26.58
33414;BME280;60055;41.884;12.534;2023-07-13T00:43:43;100925.69;;;30.90;26.27
33414;BME280;60055;41.884;12.534;2023-07-13T00:46:19;100914.41;;;30.93;25.86
33414;BME280;60055;41.884;12.534;2023-07-13T00:48:46;100908.28;;;30.91;25.86
33414;BME280;60055;41.884;12.534;2023-07-13T00:51:14;100906.91;;;30.95;26.13
33414;BME280;60055;41.884;12.534;2023-07-13T00:53:42;100911.66;;;30.93;25.64
33414;BME280;60055;41.884;12.534;2023-07-13T00:56:08;100910.47;;;30.96;25.48
33414;BME280;60055;41.884;12.534;2023-07-13T00:58:34;100908.94;;;30.93;26.03
33414;BME280;60055;41.884;12.534;2023-07-13T01:01:00;100910.16;;;30.90;25.81
33414;BME280;60055;41.884;12.534;2023-07-13T01:03:26;100910.38;;;30.89;25.74
33414;BME280;60055;41.884;12.534;2023-07-13T01:05:51;100905.44;;;30.84;25.69
33414;BME280;60055;41.884;12.534;2023-07-13T01:08:20;100903.63;;;30.77;26.12
33414;BME280;60055;41.884;12.534;2023-07-13T01:10:57;100904.31;;;30.79;26.18
33414;BME280;60055;41.884;12.534;2023-07-13T01:13:23;100909.31;;;30.90;26.47
33414;BME280;60055;41.884;12.534;2023-07-13T01:15:50;100910.69;;;30.86;26.09
33414;BME280;60055;41.884;12.534;2023-07-13T01:18:22;100903.22;;;30.88;26.31
33414;BME280;60055;41.884;12.534;2023-07-13T01:21:02;100905.25;;;30.86;26.48
33414;BME280;60055;41.884;12.534;2023-07-13T01:23:30;100908.66;;;30.88;26.60
33414;BME280;60055;41.884;12.534;2023-07-13T01:25:56;100898.78;;;30.87;26.44
33414;BME280;60055;41.884;12.534;2023-07-13T01:28:23;100900.47;;;30.88;26.49
33414;BME280;60055;41.884;12.534;2023-07-13T01:30:52;100898.84;;;30.79;26.59
33414;BME280;60055;41.884;12.534;2023-07-13T01:33:18;100905.44;;;30.84;26.38
33414;BME280;60055;41.884;12.534;2023-07-13T01:35:46;100905.25;;;30.86;26.51
33414;BME280;60055;41.884;12.534;2023-07-13T01:38:15;100907.63;;;30.89;26.33
33414;BME280;60055;41.884;12.534;2023-07-13T01:40:41;100905.38;;;30.92;26.64
33414;BME280;60055;41.884;12.534;2023-07-13T01:43:07;100905.19;;;30.94;26.65
33414;BME280;60055;41.884;12.534;2023-07-13T01:45:33;100903.69;;;30.91;26.55
33414;BME280;60055;41.884;12.534;2023-07-13T01:47:58;100901.34;;;30.88;27.08
33414;BME280;60055;41.884;12.534;2023-07-13T01:50:25;100898.59;;;30.88;26.74
33414;BME280;60055;41.884;12.534;2023-07-13T01:52:51;100890.06;;;30.91;26.41
33414;BME280;60055;41.884;12.534;2023-07-13T01:55:16;100902.19;;;30.89;26.72
33414;BME280;60055;41.884;12.534;2023-07-13T01:57:42;100909.63;;;30.95;26.97
33414;BME280;60055;41.884;12.534;2023-07-13T02:00:09;100902.47;;;30.94;26.74
33414;BME280;60055;41.884;12.534;2023-07-13T02:02:36;100901.00;;;30.83;27.12
33414;BME280;60055;41.884;12.534;2023-07-13T02:05:01;100901.38;;;30.80;27.12
33414;BME280;60055;41.884;12.534;2023-07-13T02:07:27;100907.97;;;30.86;27.30
33414;BME280;60055;41.884;12.534;2023-07-13T02:09:52;100915.22;;;30.79;27.04
33414;BME280;60055;41.884;12.534;2023-07-13T02:12:19;100915.44;;;30.92;27.27
33414;BME280;60055;41.884;12.534;2023-07-13T02:14:44;100921.56;;;30.94;27.29
33414;BME280;60055;41.884;12.534;2023-07-13T02:17:10;100910.59;;;30.79;27.46
33414;BME280;60055;41.884;12.534;2023-07-13T02:19:36;100921.06;;;30.68;28.03
33414;BME280;60055;41.884;12.534;2023-07-13T02:22:01;100914.84;;;30.82;28.03
33414;BME280;60055;41.884;12.534;2023-07-13T02:24:27;100910.16;;;30.90;27.84
33414;BME280;60055;41.884;12.534;2023-07-13T02:26:52;100907.28;;;30.92;27.53
33414;BME280;60055;41.884;12.534;2023-07-13T02:29:18;100923.97;;;30.97;27.50
33414;BME280;60055;41.884;12.534;2023-07-13T02:31:43;100924.91;;;31.04;27.87
33414;BME280;60055;41.884;12.534;2023-07-13T02:34:09;100925.94;;;31.03;28.03
33414;BME280;60055;41.884;12.534;2023-07-13T02:36:34;100927.00;;;30.94;28.51
33414;BME280;60055;41.884;12.534;2023-07-13T02:39:02;100934.59;;;30.84;28.30
33414;BME280;60055;41.884;12.534;2023-07-13T02:41:28;100935.06;;;30.87;28.40
33414;BME280;60055;41.884;12.534;2023-07-13T02:43:53;100938.94;;;30.93;28.73
33414;BME280;60055;41.884;12.534;2023-07-13T02:46:19;100932.88;;;30.83;29.97
33414;BME280;60055;41.884;12.534;2023-07-13T02:48:44;100932.50;;;30.63;31.37
33414;BME280;60055;41.884;12.534;2023-07-13T02:51:11;100933.84;;;30.67;31.21
33414;BME280;60055;41.884;12.534;2023-07-13T02:53:37;100930.28;;;30.67;31.68
33414;BME280;60055;41.884;12.534;2023-07-13T02:56:04;100930.03;;;30.54;32.31
33414;BME280;60055;41.884;12.534;2023-07-13T02:58:30;100928.97;;;30.16;33.41
33414;BME280;60055;41.884;12.534;2023-07-13T03:00:55;100931.03;;;30.14;33.36
33414;BME280;60055;41.884;12.534;2023-07-13T03:03:21;100933.84;;;29.89;33.86
33414;BME280;60055;41.884;12.534;2023-07-13T03:05:47;100941.50;;;29.94;33.63
33414;BME280;60055;41.884;12.534;2023-07-13T03:08:15;100939.94;;;30.08;33.65
33414;BME280;60055;41.884;12.534;2023-07-13T03:10:41;100943.47;;;30.08;33.71
33414;BME280;60055;41.884;12.534;2023-07-13T03:13:06;100938.78;;;29.86;34.39
33414;BME280;60055;41.884;12.534;2023-07-13T03:15:31;100940.84;;;29.76;34.61
33414;BME280;60055;41.884;12.534;2023-07-13T03:17:57;100925.16;;;29.94;34.23
33414;BME280;60055;41.884;12.534;2023-07-13T03:20:23;100926.69;;;29.88;34.54
33414;BME280;60055;41.884;12.534;2023-07-13T03:22:48;100925.34;;;29.84;34.69
33414;BME280;60055;41.884;12.534;2023-07-13T03:25:14;100921.59;;;29.85;34.79
33414;BME280;60055;41.884;12.534;2023-07-13T03:27:39;100924.50;;;29.76;35.09
33414;BME280;60055;41.884;12.534;2023-07-13T03:30:05;100933.16;;;29.71;34.86
33414;BME280;60055;41.884;12.534;2023-07-13T03:32:32;100934.22;;;29.62;35.26
33414;BME280;60055;41.884;12.534;2023-07-13T03:34:57;100929.78;;;29.85;34.82
33414;BME280;60055;41.884;12.534;2023-07-13T03:37:23;100927.22;;;29.76;34.80
33414;BME280;60055;41.884;12.534;2023-07-13T03:39:49;100930.59;;;29.78;34.95
33414;BME280;60055;41.884;12.534;2023-07-13T03:42:14;100926.38;;;29.75;34.98
33414;BME280;60055;41.884;12.534;2023-07-13T03:44:40;100921.44;;;29.87;34.66
33414;BME280;60055;41.884;12.534;2023-07-13T03:47:06;100930.59;;;29.78;35.13
33414;BME280;60055;41.884;12.534;2023-07-13T03:49:34;100932.50;;;29.85;34.34
33414;BME280;60055;41.884;12.534;2023-07-13T03:52:00;100933.00;;;29.89;34.57
33414;BME280;60055;41.884;12.534;2023-07-13T03:54:25;100922.09;;;29.97;34.55
33414;BME280;60055;41.884;12.534;2023-07-13T03:56:51;100923.13;;;29.88;34.61
33414;BME280;60055;41.884;12.534;2023-07-13T03:59:16;100929.13;;;29.67;34.82
33414;BME280;60055;41.884;12.534;2023-07-13T04:01:43;100926.72;;;29.72;34.81
33414;BME280;60055;41.884;12.534;2023-07-13T04:04:09;100922.63;;;29.76;34.82
33414;BME280;60055;41.884;12.534;2023-07-13T04:06:34;100914.16;;;29.63;35.21
33414;BME280;60055;41.884;12.534;2023-07-13T04:09:01;100909.56;;;29.64;35.06
33414;BME280;60055;41.884;12.534;2023-07-13T04:11:30;100911.59;;;29.70;35.09
33414;BME280;60055;41.884;12.534;2023-07-13T04:13:56;100897.13;;;29.69;34.85
33414;BME280;60055;41.884;12.534;2023-07-13T04:16:22;100891.88;;;29.52;34.92
33414;BME280;60055;41.884;12.534;2023-07-13T04:18:48;100896.34;;;29.36;35.25
33414;BME280;60055;41.884;12.534;2023-07-13T04:21:14;100904.97;;;29.56;34.23
33414;BME280;60055;41.884;12.534;2023-07-13T04:23:40;100901.69;;;29.77;34.05
33414;BME280;60055;41.884;12.534;2023-07-13T04:26:06;100911.84;;;29.99;33.99
33414;BME280;60055;41.884;12.534;2023-07-13T04:28:32;100903.81;;;30.14;33.72
33414;BME280;60055;41.884;12.534;2023-07-13T04:30:57;100911.09;;;30.21;33.73
33414;BME280;60055;41.884;12.534;2023-07-13T04:33:23;100902.38;;;30.26;33.38
33414;BME280;60055;41.884;12.534;2023-07-13T04:35:52;100910.88;;;30.31;33.35
33414;BME280;60055;41.884;12.534;2023-07-13T04:38:27;100916.81;;;30.34;33.21
33414;BME280;60055;41.884;12.534;2023-07-13T04:40:58;100924.44;;;30.39;33.02
33414;BME280;60055;41.884;12.534;2023-07-13T04:43:25;100912.19;;;30.43;33.28
33414;BME280;60055;41.884;12.534;2023-07-13T04:45:51;100906.44;;;30.30;33.34
33414;BME280;60055;41.884;12.534;2023-07-13T04:48:17;100902.63;;;30.39;32.97
33414;BME280;60055;41.884;12.534;2023-07-13T04:50:42;100911.38;;;30.34;33.26
33414;BME280;60055;41.884;12.534;2023-07-13T04:53:09;100906.22;;;30.48;33.17
33414;BME280;60055;41.884;12.534;2023-07-13T04:55:36;100912.53;;;30.40;33.19
33414;BME280;60055;41.884;12.534;2023-07-13T04:58:02;100911.97;;;30.53;33.24
33414;BME280;60055;41.884;12.534;2023-07-13T05:00:28;100917.66;;;30.66;33.21
33414;BME280;60055;41.884;12.534;2023-07-13T05:02:55;100918.22;;;30.84;33.21
33414;BME280;60055;41.884;12.534;2023-07-13T05:05:22;100929.53;;;30.73;32.90
33414;BME280;60055;41.884;12.534;2023-07-13T05:07:48;100928.03;;;30.70;33.38
33414;BME280;60055;41.884;12.534;2023-07-13T05:10:13;100924.56;;;31.07;32.48
33414;BME280;60055;41.884;12.534;2023-07-13T05:12:39;100932.44;;;31.25;32.74
33414;BME280;60055;41.884;12.534;2023-07-13T05:15:05;100932.56;;;31.46;32.19
33414;BME280;60055;41.884;12.534;2023-07-13T05:17:31;100934.09;;;31.49;30.73
33414;BME280;60055;41.884;12.534;2023-07-13T05:19:57;100933.13;;;31.41;31.26
33414;BME280;60055;41.884;12.534;2023-07-13T05:22:22;100931.69;;;31.68;30.86
33414;BME280;60055;41.884;12.534;2023-07-13T05:24:48;100935.84;;;31.94;30.64
33414;BME280;60055;41.884;12.534;2023-07-13T05:27:13;100947.34;;;32.18;30.62
33414;BME280;60055;41.884;12.534;2023-07-13T05:29:38;100928.13;;;32.41;29.71
33414;BME280;60055;41.884;12.534;2023-07-13T05:32:04;100930.22;;;32.75;28.80
33414;BME280;60055;41.884;12.534;2023-07-13T05:34:30;100926.94;;;32.86;27.95
33414;BME280;60055;41.884;12.534;2023-07-13T05:36:55;100919.66;;;32.93;28.36
33414;BME280;60055;41.884;12.534;2023-07-13T05:39:21;100914.72;;;33.24;27.96
33414;BME280;60055;41.884;12.534;2023-07-13T05:41:46;100925.63;;;33.46;27.50
33414;BME280;60055;41.884;12.534;2023-07-13T05:44:12;100922.44;;;33.70;26.42
33414;BME280;60055;41.884;12.534;2023-07-13T05:46:37;100932.81;;;33.74;26.61
33414;BME280;60055;41.884;12.534;2023-07-13T05:49:03;100924.22;;;33.84;27.17
33414;BME280;60055;41.884;12.534;2023-07-13T05:51:28;100923.38;;;33.83;26.75
33414;BME280;60055;41.884;12.534;2023-07-13T05:53:54;100932.69;;;34.17;26.43
33414;BME280;60055;41.884;12.534;2023-07-13T05:56:19;100927.66;;;34.20;25.48
33414;BME280;60055;41.884;12.534;2023-07-13T05:58:45;100927.97;;;34.58;25.25
33414;BME280;60055;41.884;12.534;2023-07-13T06:01:12;100930.91;;;34.44;25.51
33414;BME280;60055;41.884;12.534;2023-07-13T06:03:38;100923.13;;;34.06;25.26
33414;BME280;60055;41.884;12.534;2023-07-13T06:06:05;100935.25;;;34.25;25.01
33414;BME280;60055;41.884;12.534;2023-07-13T06:08:31;100933.34;;;34.25;23.65
33414;BME280;60055;41.884;12.534;2023-07-13T06:11:17;100924.25;;;34.66;23.17
33414;BME280;60055;41.884;12.534;2023-07-13T06:13:43;100926.63;;;34.34;22.01
33414;BME280;60055;41.884;12.534;2023-07-13T06:16:09;100919.03;;;34.30;22.02
33414;BME280;60055;41.884;12.534;2023-07-13T06:18:36;100924.00;;;34.61;21.89
33414;BME280;60055;41.884;12.534;2023-07-13T06:21:07;100921.34;;;35.07;21.82
33414;BME280;60055;41.884;12.534;2023-07-13T06:23:32;100930.47;;;35.47;21.73
33414;BME280;60055;41.884;12.534;2023-07-13T06:25:58;100930.69;;;35.12;21.38
33414;BME280;60055;41.884;12.534;2023-07-13T06:28:23;100933.44;;;35.38;20.92
33414;BME280;60055;41.884;12.534;2023-07-13T06:30:48;100934.06;;;35.54;21.19
33414;BME280;60055;41.884;12.534;2023-07-13T06:33:14;100933.44;;;35.38;21.40
33414;BME280;60055;41.884;12.534;2023-07-13T06:35:39;100949.69;;;35.40;21.02
33414;BME280;60055;41.884;12.534;2023-07-13T06:38:05;100951.59;;;35.33;20.99
33414;BME280;60055;41.884;12.534;2023-07-13T06:40:30;100948.66;;;35.48;21.27
33414;BME280;60055;41.884;12.534;2023-07-13T06:42:56;100945.50;;;35.24;21.27
33414;BME280;60055;41.884;12.534;2023-07-13T06:45:22;100943.97;;;35.15;21.68
33414;BME280;60055;41.884;12.534;2023-07-13T06:47:48;100950.38;;;35.68;21.26
33414;BME280;60055;41.884;12.534;2023-07-13T06:50:13;100950.31;;;35.95;21.01
33414;BME280;60055;41.884;12.534;2023-07-13T06:52:38;100945.34;;;36.36;20.60
33414;BME280;60055;41.884;12.534;2023-07-13T06:55:04;100942.31;;;36.44;20.50
33414;BME280;60055;41.884;12.534;2023-07-13T06:57:30;100941.84;;;35.83;21.13
33414;BME280;60055;41.884;12.534;2023-07-13T06:59:55;100941.69;;;35.71;20.98
33414;BME280;60055;41.884;12.534;2023-07-13T07:02:20;100932.31;;;36.05;20.93
33414;BME280;60055;41.884;12.534;2023-07-13T07:04:46;100932.75;;;36.02;21.05
33414;BME280;60055;41.884;12.534;2023-07-13T07:07:11;100935.97;;;35.86;21.12
33414;BME280;60055;41.884;12.534;2023-07-13T07:09:37;100937.88;;;35.85;21.26
33414;BME280;60055;41.884;12.534;2023-07-13T07:12:02;100943.78;;;35.89;21.50
33414;BME280;60055;41.884;12.534;2023-07-13T07:14:28;100933.00;;;35.81;21.49
33414;BME280;60055;41.884;12.534;2023-07-13T07:16:54;100936.06;;;36.24;21.40
33414;BME280;60055;41.884;12.534;2023-07-13T07:19:19;100941.81;;;36.16;21.37
33414;BME280;60055;41.884;12.534;2023-07-13T07:21:45;100939.94;;;36.16;21.25
33414;BME280;60055;41.884;12.534;2023-07-13T07:24:10;100945.47;;;36.54;21.02
33414;BME280;60055;41.884;12.534;2023-07-13T07:26:36;100942.59;;;36.80;20.71
33414;BME280;60055;41.884;12.534;2023-07-13T07:29:01;100946.78;;;36.90;20.44
33414;BME280;60055;41.884;12.534;2023-07-13T07:31:27;100941.13;;;36.78;20.71
33414;BME280;60055;41.884;12.534;2023-07-13T07:33:52;100932.38;;;36.87;20.78
33414;BME280;60055;41.884;12.534;2023-07-13T07:36:18;100933.25;;;36.81;21.34
33414;BME280;60055;41.884;12.534;2023-07-13T07:38:43;100936.69;;;36.77;20.79
33414;BME280;60055;41.884;12.534;2023-07-13T07:41:09;100943.75;;;37.04;21.00
33414;BME280;60055;41.884;12.534;2023-07-13T07:43:35;100941.03;;;36.91;20.89
33414;BME280;60055;41.884;12.534;2023-07-13T07:46:01;100952.25;;;36.96;21.14
33414;BME280;60055;41.884;12.534;2023-07-13T07:48:26;100937.50;;;37.15;21.33
33414;BME280;60055;41.884;12.534;2023-07-13T07:50:52;100928.69;;;37.31;21.18
33414;BME280;60055;41.884;12.534;2023-07-13T07:53:17;100935.53;;;36.91;22.20
33414;BME280;60055;41.884;12.534;2023-07-13T07:55:43;100930.13;;;37.09;21.94
33414;BME280;60055;41.884;12.534;2023-07-13T07:58:08;100932.66;;;37.35;21.66
33414;BME280;60055;41.884;12.534;2023-07-13T08:00:34;100930.19;;;37.77;21.19
33414;BME280;60055;41.884;12.534;2023-07-13T08:03:00;100935.56;;;37.72;21.52
33414;BME280;60055;41.884;12.534;2023-07-13T08:05:26;100933.09;;;37.14;21.68
33414;BME280;60055;41.884;12.534;2023-07-13T08:07:52;100938.84;;;37.06;22.28
33414;BME280;60055;41.884;12.534;2023-07-13T08:10:17;100941.66;;;36.93;22.30
33414;BME280;60055;41.884;12.534;2023-07-13T08:12:43;100935.25;;;37.06;22.63
33414;BME280;60055;41.884;12.534;2023-07-13T08:15:15;100935.97;;;36.44;23.05
33414;BME280;60055;41.884;12.534;2023-07-13T08:17:41;100933.91;;;36.83;22.74
33414;BME280;60055;41.884;12.534;2023-07-13T08:20:07;100950.41;;;36.83;23.22
33414;BME280;60055;41.884;12.534;2023-07-13T08:22:34;100947.34;;;36.67;23.55
33414;BME280;60055;41.884;12.534;2023-07-13T08:25:00;100962.78;;;36.68;23.30
33414;BME280;60055;41.884;12.534;2023-07-13T08:27:27;100964.19;;;36.83;23.23
33414;BME280;60055;41.884;12.534;2023-07-13T08:29:54;100977.41;;;37.38;22.79
33414;BME280;60055;41.884;12.534;2023-07-13T08:32:21;100988.78;;;37.48;23.17
33414;BME280;60055;41.884;12.534;2023-07-13T08:34:47;100974.09;;;37.54;22.96
33414;BME280;60055;41.884;12.534;2023-07-13T08:37:13;100980.75;;;37.40;22.45
33414;BME280;60055;41.884;12.534;2023-07-13T08:39:38;100971.06;;;37.62;22.97
33414;BME280;60055;41.884;12.534;2023-07-13T08:42:14;100980.09;;;37.69;23.43
33414;BME280;60055;41.884;12.534;2023-07-13T08:47:33;100972.00;;;37.74;23.18
33414;BME280;60055;41.884;12.534;2023-07-13T08:50:01;100962.38;;;37.02;24.15
33414;BME280;60055;41.884;12.534;2023-07-13T08:54:56;100964.44;;;37.13;23.74
33414;BME280;60055;41.884;12.534;2023-07-13T08:57:33;100940.09;;;36.72;24.59
33414;BME280;60055;41.884;12.534;2023-07-13T08:59:59;100940.31;;;36.71;24.85
33414;BME280;60055;41.884;12.534;2023-07-13T09:03:01;100935.59;;;36.40;24.69
33414;BME280;60055;41.884;12.534;2023-07-13T09:05:35;100948.16;;;36.23;25.85
33414;BME280;60055;41.884;12.534;2023-07-13T09:10:44;100951.19;;;36.53;25.65
33414;BME280;60055;41.884;12.534;2023-07-13T09:13:31;100954.78;;;36.91;25.28
33414;BME280;60055;41.884;12.534;2023-07-13T09:16:01;100946.13;;;36.87;25.42
33414;BME280;60055;41.884;12.534;2023-07-13T09:18:36;100956.19;;;37.13;25.23
33414;BME280;60055;41.884;12.534;2023-07-13T09:21:12;100966.84;;;37.03;25.01
33414;BME280;60055;41.884;12.534;2023-07-13T09:23:40;100960.78;;;36.81;25.23
33414;BME280;60055;41.884;12.534;2023-07-13T09:26:18;100954.09;;;36.64;25.87
33414;BME280;60055;41.884;12.534;2023-07-13T09:28:48;100942.38;;;36.82;25.68
33414;BME280;60055;41.884;12.534;2023-07-13T09:31:23;100937.66;;;36.89;25.38
33414;BME280;60055;41.884;12.534;2023-07-13T09:33:49;100928.50;;;36.95;25.60
33414;BME280;60055;41.884;12.534;2023-07-13T09:38:41;100944.09;;;36.76;25.90
33414;BME280;60055;41.884;12.534;2023-07-13T09:41:43;100957.78;;;36.90;25.77
33414;BME280;60055;41.884;12.534;2023-07-13T09:44:14;100955.66;;;36.92;25.96
33414;BME280;60055;41.884;12.534;2023-07-13T09:46:52;100949.84;;;36.68;26.09
33414;BME280;60055;41.884;12.534;2023-07-13T09:49:18;100960.69;;;36.63;26.07
33414;BME280;60055;41.884;12.534;2023-07-13T09:51:44;100944.44;;;36.49;26.61
33414;BME280;60055;41.884;12.534;2023-07-13T09:54:24;100945.00;;;36.70;26.15
33414;BME280;60055;41.884;12.534;2023-07-13T09:56:58;100946.81;;;36.83;25.93
33414;BME280;60055;41.884;12.534;2023-07-13T09:59:29;100949.44;;;36.65;26.04
33414;BME280;60055;41.884;12.534;2023-07-13T10:01:55;100945.84;;;36.20;27.38
33414;BME280;60055;41.884;12.534;2023-07-13T10:04:28;100932.41;;;36.81;26.54
33414;BME280;60055;41.884;12.534;2023-07-13T10:07:05;100943.13;;;36.58;26.89
33414;BME280;60055;41.884;12.534;2023-07-13T10:09:32;100928.16;;;36.85;26.58
33414;BME280;60055;41.884;12.534;2023-07-13T10:11:58;100918.94;;;36.73;26.41
33414;BME280;60055;41.884;12.534;2023-07-13T10:14:23;100923.19;;;37.00;26.51
33414;BME280;60055;41.884;12.534;2023-07-13T10:16:56;100914.75;;;36.95;26.11
33414;BME280;60055;41.884;12.534;2023-07-13T10:19:26;100911.88;;;37.15;25.97
33414;BME280;60055;41.884;12.534;2023-07-13T10:21:55;100923.16;;;37.31;25.85
33414;BME280;60055;41.884;12.534;2023-07-13T10:26:57;100911.06;;;37.14;26.44
33414;BME280;60055;41.884;12.534;2023-07-13T10:29:27;100912.25;;;37.43;26.07
33414;BME280;60055;41.884;12.534;2023-07-13T10:31:54;100900.00;;;37.39;26.16
33414;BME280;60055;41.884;12.534;2023-07-13T10:34:22;100909.34;;;37.13;26.41
33414;BME280;60055;41.884;12.534;2023-07-13T10:36:48;100928.97;;;37.23;27.07
33414;BME280;60055;41.884;12.534;2023-07-13T10:39:23;100923.66;;;36.97;28.16
33414;BME280;60055;41.884;12.534;2023-07-13T10:41:54;100924.13;;;37.19;27.81
33414;BME280;60055;41.884;12.534;2023-07-13T10:44:38;100927.53;;;37.21;27.87
33414;BME280;60055;41.884;12.534;2023-07-13T10:47:08;100944.41;;;36.93;28.33
33414;BME280;60055;41.884;12.534;2023-07-13T10:49:39;100923.00;;;37.02;28.14
33414;BME280;60055;41.884;12.534;2023-07-13T10:52:06;100924.69;;;37.03;27.73
33414;BME280;60055;41.884;12.534;2023-07-13T10:54:51;100912.16;;;37.07;27.89
33414;BME280;60055;41.884;12.534;2023-07-13T10:57:19;100920.56;;;36.43;29.25
33414;BME280;60055;41.884;12.534;2023-07-13T11:00:15;100925.97;;;36.05;30.15
33414;BME280;60055;41.884;12.534;2023-07-13T11:02:41;100914.09;;;36.17;29.84
33414;BME280;60055;41.884;12.534;2023-07-13T11:05:28;100912.03;;;35.86;30.47
33414;BME280;60055;41.884;12.534;2023-07-13T11:08:03;100918.75;;;36.17;30.21
33414;BME280;60055;41.884;12.534;2023-07-13T11:13:39;100913.91;;;36.12;30.16
33414;BME280;60055;41.884;12.534;2023-07-13T11:18:50;100898.03;;;36.14;31.09
33414;BME280;60055;41.884;12.534;2023-07-13T11:21:21;100903.13;;;36.04;31.19
33414;BME280;60055;41.884;12.534;2023-07-13T11:24:12;100913.78;;;35.74;31.30
33414;BME280;60055;41.884;12.534;2023-07-13T11:31:59;100918.31;;;36.26;30.71
33414;BME280;60055;41.884;12.534;2023-07-13T11:34:38;100927.47;;;36.52;29.65
33414;BME280;60055;41.884;12.534;2023-07-13T11:37:11;100917.09;;;36.54;29.89
33414;BME280;60055;41.884;12.534;2023-07-13T11:39:41;100917.97;;;36.48;30.40
33414;BME280;60055;41.884;12.534;2023-07-13T11:42:13;100919.19;;;36.14;31.15
33414;BME280;60055;41.884;12.534;2023-07-13T11:44:46;100899.56;;;36.48;30.19
33414;BME280;60055;41.884;12.534;2023-07-13T11:47:17;100902.63;;;36.27;31.08
33414;BME280;60055;41.884;12.534;2023-07-13T11:49:45;100911.38;;;35.98;31.82
33414;BME280;60055;41.884;12.534;2023-07-13T11:52:19;100918.75;;;36.04;32.03
33414;BME280;60055;41.884;12.534;2023-07-13T11:54:53;100921.56;;;35.84;32.63
33414;BME280;60055;41.884;12.534;2023-07-13T11:59:51;100939.06;;;36.16;31.90
33414;BME280;60055;41.884;12.534;2023-07-13T12:02:29;100927.91;;;35.91;32.29
33414;BME280;60055;41.884;12.534;2023-07-13T12:04:56;100941.81;;;36.16;31.85
33414;BME280;60055;41.884;12.534;2023-07-13T12:07:22;100929.75;;;36.10;32.32
33414;BME280;60055;41.884;12.534;2023-07-13T12:09:48;100934.22;;;36.11;31.84
33414;BME280;60055;41.884;12.534;2023-07-13T12:12:21;100929.16;;;36.02;32.38
33414;BME280;60055;41.884;12.534;2023-07-13T12:14:51;100933.56;;;36.22;32.30
33414;BME280;60055;41.884;12.534;2023-07-13T12:17:22;100945.84;;;36.20;31.86
33414;BME280;60055;41.884;12.534;2023-07-13T12:19:49;100950.53;;;35.80;33.10
33414;BME280;60055;41.884;12.534;2023-07-13T12:22:17;100957.06;;;36.05;31.93
33414;BME280;60055;41.884;12.534;2023-07-13T12:24:43;100947.75;;;36.00;32.61
33414;BME280;60055;41.884;12.534;2023-07-13T12:27:23;100949.63;;;36.19;32.59
33414;BME280;60055;41.884;12.534;2023-07-13T12:30:03;100949.69;;;35.93;33.40
33414;BME280;60055;41.884;12.534;2023-07-13T12:32:30;100948.19;;;35.90;33.20
33414;BME280;60055;41.884;12.534;2023-07-13T12:35:01;100952.69;;;35.71;33.51
33414;BME280;60055;41.884;12.534;2023-07-13T12:37:34;100949.69;;;35.47;34.22
33414;BME280;60055;41.884;12.534;2023-07-13T12:40:00;100929.00;;;35.11;35.39
33414;BME280;60055;41.884;12.534;2023-07-13T12:42:28;100930.25;;;35.22;35.37
33414;BME280;60055;41.884;12.534;2023-07-13T12:47:43;100925.59;;;35.81;33.86
33414;BME280;60055;41.884;12.534;2023-07-13T12:50:19;100933.03;;;35.68;34.67
33414;BME280;60055;41.884;12.534;2023-07-13T12:52:51;100935.56;;;35.63;34.27
33414;BME280;60055;41.884;12.534;2023-07-13T12:55:18;100919.28;;;35.42;34.74
33414;BME280;60055;41.884;12.534;2023-07-13T12:58:04;100926.25;;;35.37;35.42
33414;BME280;60055;41.884;12.534;2023-07-13T13:00:40;100913.09;;;34.87;35.98
33414;BME280;60055;41.884;12.534;2023-07-13T13:03:21;100908.25;;;35.09;35.73
33414;BME280;60055;41.884;12.534;2023-07-13T13:05:47;100912.31;;;35.13;35.80
33414;BME280;60055;41.884;12.534;2023-07-13T13:08:13;100912.06;;;35.08;35.09
33414;BME280;60055;41.884;12.534;2023-07-13T13:10:38;100904.91;;;35.20;35.10
33414;BME280;60055;41.884;12.534;2023-07-13T13:13:04;100899.81;;;35.04;35.51
33414;BME280;60055;41.884;12.534;2023-07-13T13:15:29;100901.91;;;35.02;35.74